createdAt,value
2022-12-16T00:01:28.342Z,39.30
2022-12-16T00:03:57.429Z,39.30
2022-12-16T00:06:26.706Z,39.00
2022-12-16T00:08:53.714Z,40.20
2022-12-16T00:11:21.852Z,40.60
2022-12-16T00:13:48.589Z,41.00
2022-12-16T00:16:17.379Z,39.20
2022-12-16T00:18:45.200Z,39.20
2022-12-16T00:21:12.409Z,39.20
2022-12-16T00:23:39.414Z,40.80
2022-12-16T00:26:06.868Z,39.90
2022-12-16T00:28:34.365Z,39.30
2022-12-16T00:31:01.216Z,39.00
2022-12-16T00:33:28.789Z,40.00
2022-12-16T00:35:56.778Z,40.40
2022-12-16T00:38:25.823Z,39.00
2022-12-16T00:40:52.538Z,38.40
2022-12-16T00:43:20.142Z,38.90
2022-12-16T00:45:47.787Z,38.90
2022-12-16T00:48:15.453Z,38.30
2022-12-16T00:50:46.321Z,39.20
2022-12-16T00:53:13.052Z,38.30
2022-12-16T00:55:39.822Z,39.00
2022-12-16T00:58:06.551Z,39.70
2022-12-16T01:00:33.374Z,38.80
2022-12-16T01:03:00.306Z,38.90
2022-12-16T01:05:27.478Z,38.10
2022-12-16T01:07:55.030Z,38.30
2022-12-16T01:10:22.889Z,38.90
2022-12-16T01:12:49.918Z,38.80
2022-12-16T01:15:18.422Z,39.00
2022-12-16T01:17:45.795Z,39.00
2022-12-16T01:20:14.113Z,40.60
2022-12-16T01:22:41.286Z,38.40
2022-12-16T01:25:09.699Z,39.20
2022-12-16T01:27:36.442Z,39.10
2022-12-16T01:30:03.342Z,39.80
2022-12-16T01:32:30.228Z,39.30
2022-12-16T01:34:57.124Z,40.20
2022-12-16T01:37:24.420Z,39.10
2022-12-16T01:39:52.338Z,38.50
2022-12-16T01:42:22.227Z,38.50
2022-12-16T01:44:52.228Z,39.40
2022-12-16T01:47:25.489Z,38.90
2022-12-16T01:50:02.312Z,39.10
2022-12-16T01:52:38.570Z,39.60
2022-12-16T01:55:08.389Z,38.90
2022-12-16T01:57:45.675Z,39.20
2022-12-16T02:00:13.246Z,39.80
2022-12-16T02:02:44.824Z,39.00
2022-12-16T02:05:22.054Z,39.00
2022-12-16T02:08:19.113Z,40.80
2022-12-16T02:11:07.609Z,39.00
2022-12-16T02:13:52.263Z,38.90
2022-12-16T02:16:27.561Z,39.00
2022-12-16T02:19:17.028Z,38.90
2022-12-16T02:21:52.611Z,38.60
2022-12-16T02:24:30.265Z,38.70
2022-12-16T02:27:36.406Z,39.10
2022-12-16T02:30:21.981Z,39.00
2022-12-16T02:32:51.708Z,38.40
2022-12-16T02:35:25.247Z,40.50
2022-12-16T02:38:09.047Z,39.30
2022-12-16T02:40:43.890Z,38.60
2022-12-16T02:43:22.353Z,39.20
2022-12-16T02:45:50.163Z,39.10
2022-12-16T02:48:16.974Z,38.90
2022-12-16T02:50:49.062Z,38.40
2022-12-16T02:53:17.013Z,39.50
2022-12-16T02:55:59.730Z,39.00
2022-12-16T02:59:01.771Z,39.00
2022-12-16T03:01:35.754Z,39.00
2022-12-16T03:04:12.485Z,39.00
2022-12-16T03:06:43.915Z,39.30
2022-12-16T03:09:13.795Z,39.10
2022-12-16T03:11:43.145Z,38.90
2022-12-16T03:14:15.046Z,38.70
2022-12-16T03:16:42.659Z,39.70
2022-12-16T03:19:11.726Z,39.10
2022-12-16T03:22:09.071Z,39.20
2022-12-16T03:24:36.665Z,39.10
2022-12-16T03:27:10.267Z,39.10
2022-12-16T03:30:03.793Z,39.20
2022-12-16T03:32:39.544Z,39.10
2022-12-16T03:35:15.594Z,39.10
2022-12-16T03:37:44.502Z,40.50
2022-12-16T03:40:13.356Z,38.40
2022-12-16T03:42:42.137Z,38.90
2022-12-16T03:45:15.277Z,38.90
2022-12-16T03:57:31.241Z,38.50
2022-12-16T04:04:52.766Z,39.10
2022-12-16T04:09:52.254Z,39.20
2022-12-16T04:12:39.126Z,39.30
2022-12-16T04:15:25.458Z,39.30
2022-12-16T04:18:11.210Z,39.30
2022-12-16T04:21:00.832Z,39.50
2022-12-16T04:28:41.423Z,39.40
2022-12-16T04:31:08.684Z,39.50
2022-12-16T04:42:14.938Z,39.70
2022-12-16T04:45:00.333Z,39.50
2022-12-16T04:53:17.989Z,39.70
2022-12-16T04:56:04.715Z,39.80
2022-12-16T04:58:50.136Z,39.70
2022-12-16T05:01:36.008Z,39.70
2022-12-16T05:15:26.265Z,39.70
2022-12-16T05:18:11.890Z,39.70
2022-12-16T05:29:15.423Z,39.60
2022-12-16T05:32:00.827Z,39.50
2022-12-16T05:40:18.416Z,39.50
2022-12-16T05:43:06.487Z,39.50
2022-12-16T05:48:38.005Z,39.40
2022-12-16T05:56:56.452Z,39.40
2022-12-16T05:59:41.903Z,39.40
2022-12-16T06:02:27.464Z,39.40
2022-12-16T06:05:12.916Z,39.40
2022-12-16T06:07:58.374Z,39.50
2022-12-16T06:10:44.012Z,39.50
2022-12-16T06:16:16.097Z,39.50
2022-12-16T06:19:01.453Z,39.50
2022-12-16T06:32:50.660Z,39.60
2022-12-16T06:35:36.218Z,39.70
2022-12-16T06:38:21.690Z,39.70
2022-12-16T06:41:07.230Z,39.70
2022-12-16T06:43:52.682Z,39.60
2022-12-16T06:46:38.361Z,39.80
2022-12-16T06:49:23.909Z,39.70
2022-12-16T06:54:55.266Z,39.60
2022-12-16T06:57:40.642Z,39.70
2022-12-16T07:00:26.834Z,39.60
2022-12-16T07:03:12.777Z,39.70
2022-12-16T07:05:59.034Z,39.70
2022-12-16T07:09:04.281Z,41.80
2022-12-16T07:11:49.461Z,39.90
2022-12-16T07:14:34.902Z,39.90
2022-12-16T07:17:20.090Z,40.10
2022-12-16T07:20:05.517Z,40.10
2022-12-16T07:22:58.389Z,40.20
2022-12-16T07:25:48.658Z,40.20
2022-12-16T07:28:34.157Z,41.70
2022-12-16T07:31:19.680Z,40.90
2022-12-16T07:34:05.075Z,40.30
2022-12-16T07:36:50.618Z,42.70
2022-12-16T07:39:38.509Z,40.30
2022-12-16T07:42:23.856Z,40.30
2022-12-16T07:45:10.507Z,40.30
2022-12-16T07:47:56.756Z,40.40
2022-12-16T07:56:17.831Z,40.60
2022-12-16T08:04:36.446Z,40.60
2022-12-16T08:15:40.979Z,41.00
2022-12-16T08:32:37.238Z,43.30
2022-12-16T08:38:14.146Z,43.30
2022-12-16T08:41:01.423Z,43.40
2022-12-16T08:43:51.295Z,43.30
2022-12-16T08:57:44.688Z,44.90
2022-12-16T09:03:17.932Z,45.40
2022-12-16T09:17:14.530Z,45.60
2022-12-16T09:20:01.076Z,45.60
2022-12-16T09:33:51.507Z,45.60
2022-12-16T09:36:37.469Z,45.60
2022-12-16T09:42:31.966Z,45.40
2022-12-16T09:45:30.846Z,45.90
2022-12-16T09:48:30.021Z,45.90
2022-12-16T09:51:17.370Z,44.90
2022-12-16T09:54:03.492Z,44.70
2022-12-16T09:56:52.161Z,44.50
2022-12-16T09:59:47.528Z,44.50
2022-12-16T10:02:35.654Z,44.30
2022-12-16T10:05:27.862Z,44.60
2022-12-16T10:08:43.273Z,44.80
2022-12-16T10:14:38.804Z,44.90
2022-12-16T10:17:56.681Z,44.90
2022-12-16T10:26:58.532Z,44.80
2022-12-16T10:29:46.934Z,44.80
2022-12-16T10:32:40.526Z,44.60
2022-12-16T10:38:33.018Z,44.50
2022-12-16T10:41:19.559Z,44.40
2022-12-16T10:44:06.550Z,44.40
2022-12-16T10:46:53.912Z,44.30
2022-12-16T10:52:32.277Z,44.20
2022-12-16T10:56:03.830Z,44.10
2022-12-16T10:59:18.150Z,44.10
2022-12-16T11:02:44.702Z,44.00
2022-12-16T11:05:49.790Z,43.90
2022-12-16T11:08:43.917Z,44.00
2022-12-16T11:11:49.551Z,44.00
2022-12-16T11:14:59.566Z,43.90
2022-12-16T11:17:49.431Z,43.80
2022-12-16T11:20:36.663Z,43.90
2022-12-16T11:23:43.567Z,43.90
2022-12-16T11:26:37.535Z,43.90
2022-12-16T11:29:36.653Z,43.80
2022-12-16T11:32:42.695Z,43.90
2022-12-16T11:35:41.211Z,43.80
2022-12-16T11:38:37.402Z,43.80
2022-12-16T11:41:23.537Z,43.90
2022-12-16T11:44:11.710Z,43.90
2022-12-16T11:49:49.187Z,44.00
2022-12-16T11:52:40.321Z,43.90
2022-12-16T11:56:03.596Z,43.90
2022-12-16T11:59:06.874Z,43.90
2022-12-16T12:02:10.689Z,43.90
2022-12-16T12:04:57.277Z,43.90
2022-12-16T12:07:51.402Z,44.00
2022-12-16T12:10:40.115Z,45.90
2022-12-16T12:13:47.215Z,44.10
2022-12-16T12:16:51.062Z,44.00
2022-12-16T12:19:44.323Z,43.90
2022-12-16T12:22:46.162Z,44.00
2022-12-16T12:25:42.812Z,43.90
2022-12-16T12:29:02.210Z,44.50
2022-12-16T12:32:10.738Z,43.90
2022-12-16T12:35:11.062Z,43.90
2022-12-16T12:38:05.183Z,44.40
2022-12-16T12:41:03.779Z,43.80
2022-12-16T12:43:54.891Z,43.80
2022-12-16T12:46:52.481Z,43.90
2022-12-16T12:49:53.578Z,44.00
2022-12-16T12:53:17.952Z,44.20
2022-12-16T12:56:10.913Z,44.20
2022-12-16T13:01:48.664Z,44.50
2022-12-16T13:10:52.808Z,44.40
2022-12-16T13:16:30.160Z,44.30
2022-12-16T13:19:49.895Z,44.20
2022-12-16T13:22:51.937Z,44.30
2022-12-16T13:25:57.962Z,44.30
2022-12-16T13:34:42.849Z,44.60
2022-12-16T13:40:41.790Z,45.70
2022-12-16T13:44:02.155Z,45.80
2022-12-16T13:47:11.157Z,45.90
2022-12-16T13:50:03.793Z,45.80
2022-12-16T13:55:56.907Z,45.70
2022-12-16T14:01:39.925Z,45.50
2022-12-16T14:04:29.268Z,45.40
2022-12-16T14:13:11.004Z,45.20
2022-12-16T14:16:36.323Z,45.10
2022-12-16T14:27:52.898Z,45.10
2022-12-16T14:30:45.306Z,45.10
2022-12-16T14:33:47.950Z,45.10
2022-12-16T14:36:42.658Z,45.10
2022-12-16T14:39:56.150Z,44.90
2022-12-16T14:42:46.887Z,44.90
2022-12-16T14:45:46.561Z,44.80
2022-12-16T14:48:54.079Z,44.70
2022-12-16T14:51:55.441Z,44.50
2022-12-16T14:55:00.859Z,44.60
2022-12-16T14:57:51.993Z,44.30
2022-12-16T15:00:40.536Z,44.30
2022-12-16T15:06:41.021Z,44.10
2022-12-16T15:09:35.495Z,44.10
2022-12-16T15:12:22.576Z,44.10
2022-12-16T15:15:09.189Z,44.00
2022-12-16T15:18:14.486Z,44.00
2022-12-16T15:21:12.547Z,44.10
2022-12-16T15:41:24.611Z,44.30
2022-12-16T15:58:40.029Z,43.80
2022-12-16T16:18:23.932Z,43.30
2022-12-16T16:26:46.163Z,43.20
2022-12-16T16:40:49.433Z,43.00
2022-12-16T17:11:36.924Z,42.70
2022-12-16T17:19:53.909Z,42.60
2022-12-16T17:22:39.278Z,42.50
2022-12-16T17:28:11.323Z,42.50
2022-12-16T17:30:56.619Z,42.50
2022-12-16T17:33:42.348Z,42.50
2022-12-16T17:36:32.257Z,42.40
2022-12-16T17:39:17.678Z,42.40
2022-12-16T18:18:19.139Z,41.80
2022-12-16T18:21:04.444Z,41.80
2022-12-16T18:23:50.270Z,41.70
2022-12-16T18:26:37.216Z,41.70
2022-12-16T18:29:22.411Z,41.60
2022-12-16T18:32:08.106Z,41.60
2022-12-16T18:40:27.354Z,41.50
2022-12-16T18:43:12.890Z,41.50
2022-12-16T18:54:16.138Z,41.30
2022-12-16T18:57:01.545Z,41.40
2022-12-16T19:02:33.071Z,41.30
2022-12-16T19:08:04.168Z,41.20
2022-12-16T19:24:43.200Z,41.10
2022-12-16T20:06:35.395Z,40.40
2022-12-16T20:12:10.715Z,40.40
2022-12-16T20:18:04.654Z,40.20
2022-12-16T20:20:50.364Z,40.30
2022-12-16T20:23:35.915Z,40.20
2022-12-16T20:26:21.938Z,40.20
2022-12-16T20:29:08.149Z,40.20
2022-12-16T20:35:00.024Z,40.10
2022-12-16T20:37:45.295Z,40.00
2022-12-16T20:40:30.760Z,40.00
2022-12-16T20:46:01.966Z,40.00
2022-12-16T20:48:47.580Z,39.90
2022-12-16T20:51:34.189Z,39.90
2022-12-16T20:57:08.290Z,39.90
2022-12-16T20:59:58.894Z,39.90
2022-12-16T21:02:44.332Z,39.80
2022-12-16T21:05:29.672Z,39.80
2022-12-16T21:08:14.946Z,39.80
2022-12-16T21:11:00.389Z,39.80
2022-12-16T21:13:46.090Z,39.80
2022-12-16T21:16:31.423Z,39.80
2022-12-16T21:19:18.002Z,39.80
2022-12-16T21:24:49.462Z,39.70
2022-12-16T21:27:35.072Z,39.80
2022-12-16T21:30:21.246Z,39.80
2022-12-16T21:33:10.727Z,39.80
2022-12-16T21:38:46.684Z,39.70
2022-12-16T21:49:50.266Z,39.70
2022-12-16T21:52:35.820Z,39.80
2022-12-16T21:55:21.281Z,39.70
2022-12-16T22:00:53.607Z,39.70
2022-12-16T22:03:51.116Z,39.70
2022-12-16T22:12:09.652Z,39.70
2022-12-16T22:14:54.832Z,39.70
2022-12-16T22:17:41.567Z,39.70
2022-12-16T22:20:42.114Z,39.70
2022-12-16T22:29:01.025Z,39.70
2022-12-16T22:31:46.899Z,39.80
2022-12-16T22:37:18.096Z,39.90
2022-12-16T22:40:03.561Z,39.90
2022-12-16T22:42:49.188Z,39.90
2022-12-16T22:51:06.332Z,39.80
2022-12-16T22:53:51.856Z,39.90
2022-12-16T22:56:37.284Z,39.80
2022-12-16T22:59:22.799Z,39.80
2022-12-16T23:02:08.159Z,38.40
2022-12-16T23:07:39.334Z,39.80
2022-12-16T23:10:25.071Z,39.80
2022-12-16T23:13:10.466Z,39.70
2022-12-16T23:19:01.736Z,39.80
2022-12-16T23:21:47.152Z,41.30
2022-12-16T23:24:32.890Z,39.70
2022-12-16T23:27:18.180Z,39.70
2022-12-16T23:30:23.321Z,40.20
2022-12-16T23:33:17.612Z,41.50
2022-12-16T23:36:02.950Z,40.20
2022-12-16T23:38:48.589Z,39.50
2022-12-16T23:41:33.869Z,39.80
2022-12-16T23:44:19.308Z,39.40
2022-12-16T23:47:04.849Z,40.00
2022-12-16T23:49:50.385Z,41.20
2022-12-16T23:52:35.843Z,39.30
2022-12-16T23:55:21.261Z,40.80
2022-12-16T23:58:06.874Z,39.50
